Sea-land Lightning — WDB9986 — position and weather

sailwx.info

Track history (hours):
 
Tides and Currents Weather Stations Pressure Air Temp Water Temp Dewpoint Dewpoint Depression Visibility Wind Speed Wind Dir Waves Ship Positions

Sea-land Lightning

Owner: MAERSK LINE, LIMITED, NORFOLK, VA. More information available from US FCC via Universal Licensing System.

Last reported at 2014-Oct-26 08:29 UTC. Time now 2014-Nov-01 05:38 UTC.
Position N 33°49' E 134°53'.

Type: Ship (hazmat cat A). MMSI: 303316000.

Date/timePositionNaut miles runAvg speedWind from/ knotsBaromVisibWave heightAir tempDewpointWater temp
2014-Oct-26 08:29N 33°49' E 134°53'1212.9
2014-Oct-26 07:33N 34°01' E 134°56'1312.8
2014-Oct-26 06:33N 34°13' E 134°57'1716.8
2014-Oct-26 05:33N 34°28' E 135°08'1413.8
2014-Oct-26 04:33N 34°40' E 135°15'1 0.8
2014-Oct-26 03:33N 34°41' E 135°16'0 0.0
2014-Oct-26 02:33N 34°41' E 135°16'0 0.0
2014-Oct-26 01:33N 34°41' E 135°16'0 0.0
2014-Oct-26 00:33N 34°41' E 135°16'5 4.8
2014-Oct-25 23:33N 34°36' E 135°16'1918.9
2014-Oct-25 22:34N 34°21' E 135°02'1414.0
2014-Oct-25 21:33N 34°07' E 135°00'1111.0
2014-Oct-25 20:34N 33°56' E 134°60'8810.2
2014-Oct-25 12:00N 33°36' E 136°42'17414.0 060 / 121022.010.8 21.018.021.0
2014-Oct-24 23:32N 35°05' E 139°43'1312.9
2014-Oct-24 22:33N 35°17' E 139°44'7 7.3
2014-Oct-24 21:34N 35°24' E 139°41'0 0.0
2014-Oct-24 20:32N 35°24' E 139°41'0 0.0
2014-Oct-24 19:32N 35°24' E 139°41'0 0.0
2014-Oct-24 18:32N 35°24' E 139°41'0 0.0
2014-Oct-24 17:32N 35°24' E 139°41'0 0.0
2014-Oct-24 16:29N 35°24' E 139°41'0 0.0
2014-Oct-24 15:32N 35°24' E 139°41'0 0.0
2014-Oct-24 14:32N 35°24' E 139°41'0 0.0
2014-Oct-24 13:32N 35°24' E 139°41'0 0.0
2014-Oct-24 12:32N 35°24' E 139°41'0 0.0
2014-Oct-24 11:33N 35°24' E 139°41'4 4.3
2014-Oct-24 10:33N 35°20' E 139°43'1010.1
2014-Oct-24 09:33N 35°10' E 139°46'12 9.6
2014-Oct-24 08:21N 34°59' E 139°42'26813.2
2014-Oct-23 12:00N 38°24' E 143°18'55515.4 080 / 101022.010.8 13.0 7.317.0
2014-Oct-22 00:00N 45°36' E 151°06'17914.9 350 / 81013.010.8 0.5 7.0 4.9 5.0
2014-Oct-21 12:00N 47°42' E 154°12'   290 / 151014.0 2.2 6.0 3.8 6.0
2014-Oct-18 06:00N 54°30' W 177°30'   320 / 221019.010.8 2.5 7.0 2.6 7.0
Track history (hours):
 
Tides and Currents Weather Stations Pressure Air Temp Water Temp Dewpoint Dewpoint Depression Visibility Wind Speed Wind Dir Waves Ship Positions

Sea-land Lightning

Owner: MAERSK LINE, LIMITED, NORFOLK, VA. More information available from US FCC via Universal Licensing System.

Last reported at 2014-Oct-26 08:29 UTC. Time now 2014-Nov-01 05:38 UTC.
Position N 33°49' E 134°53'.

Type: Ship (hazmat cat A). MMSI: 303316000.

Date/timePositionNaut miles runAvg speedWind from/ knotsBaromVisibWave heightAir tempDewpointWater temp
2014-Oct-26 08:29N 33°49' E 134°53'1212.9
2014-Oct-26 07:33N 34°01' E 134°56'1312.8
2014-Oct-26 06:33N 34°13' E 134°57'1716.8
2014-Oct-26 05:33N 34°28' E 135°08'1413.8
2014-Oct-26 04:33N 34°40' E 135°15'1 0.8
2014-Oct-26 03:33N 34°41' E 135°16'0 0.0
2014-Oct-26 02:33N 34°41' E 135°16'0 0.0
2014-Oct-26 01:33N 34°41' E 135°16'0 0.0
2014-Oct-26 00:33N 34°41' E 135°16'5 4.8
2014-Oct-25 23:33N 34°36' E 135°16'1918.9
2014-Oct-25 22:34N 34°21' E 135°02'1414.0
2014-Oct-25 21:33N 34°07' E 135°00'1111.0
2014-Oct-25 20:34N 33°56' E 134°60'8810.2
2014-Oct-25 12:00N 33°36' E 136°42'17414.0 060 / 121022.010.8 21.018.021.0
2014-Oct-24 23:32N 35°05' E 139°43'1312.9
2014-Oct-24 22:33N 35°17' E 139°44'7 7.3
2014-Oct-24 21:34N 35°24' E 139°41'0 0.0
2014-Oct-24 20:32N 35°24' E 139°41'0 0.0
2014-Oct-24 19:32N 35°24' E 139°41'0 0.0
2014-Oct-24 18:32N 35°24' E 139°41'0 0.0
2014-Oct-24 17:32N 35°24' E 139°41'0 0.0
2014-Oct-24 16:29N 35°24' E 139°41'0 0.0
2014-Oct-24 15:32N 35°24' E 139°41'0 0.0
2014-Oct-24 14:32N 35°24' E 139°41'0 0.0
2014-Oct-24 13:32N 35°24' E 139°41'0 0.0
2014-Oct-24 12:32N 35°24' E 139°41'0 0.0
2014-Oct-24 11:33N 35°24' E 139°41'4 4.3
2014-Oct-24 10:33N 35°20' E 139°43'1010.1
2014-Oct-24 09:33N 35°10' E 139°46'12 9.6
2014-Oct-24 08:21N 34°59' E 139°42'26813.2
2014-Oct-23 12:00N 38°24' E 143°18'55515.4 080 / 101022.010.8 13.0 7.317.0
2014-Oct-22 00:00N 45°36' E 151°06'17914.9 350 / 81013.010.8 0.5 7.0 4.9 5.0
2014-Oct-21 12:00N 47°42' E 154°12'   290 / 151014.0 2.2 6.0 3.8 6.0
2014-Oct-18 06:00N 54°30' W 177°30'   320 / 221019.010.8 2.5 7.0 2.6 7.0

Dump ship's entire track history